createdAt,value
2022-10-16T00:01:30.164Z,5.13
2022-10-16T00:03:57.613Z,6.05
2022-10-16T00:06:24.699Z,5.63
2022-10-16T00:08:51.403Z,5.88
2022-10-16T00:11:19.485Z,5.82
2022-10-16T00:13:49.077Z,5.88
2022-10-16T00:16:16.127Z,5.15
2022-10-16T00:18:43.184Z,5.43
2022-10-16T00:21:28.556Z,5.13
2022-10-16T00:23:57.088Z,5.70
2022-10-16T00:26:23.661Z,5.88
2022-10-16T00:28:52.188Z,5.35
2022-10-16T00:31:20.561Z,6.00
2022-10-16T00:33:47.330Z,5.93
2022-10-16T00:36:16.082Z,5.65
2022-10-16T00:38:42.541Z,6.38
2022-10-16T00:41:13.120Z,6.32
2022-10-16T00:43:41.617Z,6.22
2022-10-16T00:46:23.283Z,6.53
2022-10-16T00:49:04.760Z,6.95
2022-10-16T00:51:39.018Z,6.60
2022-10-16T00:54:18.112Z,6.45
2022-10-16T00:56:45.141Z,6.53
2022-10-16T00:59:16.939Z,6.68
2022-10-16T01:01:43.360Z,6.18
2022-10-16T01:04:09.760Z,5.60
2022-10-16T01:06:54.641Z,5.28
2022-10-16T01:09:48.735Z,5.30
2022-10-16T01:12:47.808Z,5.43
2022-10-16T01:15:29.830Z,6.13
2022-10-16T01:18:07.134Z,4.43
2022-10-16T01:20:38.958Z,5.80
2022-10-16T01:23:15.757Z,5.97
2022-10-16T01:26:22.001Z,5.55
2022-10-16T01:28:55.949Z,5.70
2022-10-16T01:31:33.758Z,5.80
2022-10-16T01:34:04.791Z,6.30
2022-10-16T01:36:44.831Z,6.25
2022-10-16T01:39:12.435Z,6.10
2022-10-16T01:42:00.102Z,6.63
2022-10-16T01:44:30.422Z,6.97
2022-10-16T01:46:57.533Z,6.60
2022-10-16T01:49:27.121Z,6.72
2022-10-16T01:51:56.872Z,7.30
2022-10-16T01:54:24.623Z,6.50
2022-10-16T01:56:51.637Z,7.18
2022-10-16T01:59:21.432Z,6.97
2022-10-16T02:01:51.980Z,6.47
2022-10-16T02:04:23.680Z,6.93
2022-10-16T02:06:50.274Z,6.77
2022-10-16T02:09:17.804Z,6.38
2022-10-16T02:11:44.996Z,6.57
2022-10-16T02:14:11.527Z,6.50
2022-10-16T02:16:43.662Z,6.93
2022-10-16T02:19:10.744Z,6.55
2022-10-16T02:21:42.308Z,5.95
2022-10-16T02:24:29.877Z,6.32
2022-10-16T02:27:12.746Z,5.63
2022-10-16T02:29:45.530Z,5.38
2022-10-16T02:32:13.870Z,6.15
2022-10-16T02:34:40.779Z,6.43
2022-10-16T02:37:07.695Z,5.80
2022-10-16T02:39:34.718Z,6.10
2022-10-16T02:42:01.343Z,5.18
2022-10-16T02:44:27.719Z,6.00
2022-10-16T02:46:54.227Z,6.25
2022-10-16T02:49:20.689Z,5.50
2022-10-16T02:51:47.067Z,6.43
2022-10-16T02:54:14.004Z,6.03
2022-10-16T02:56:40.410Z,5.78
2022-10-16T02:59:06.888Z,6.30
2022-10-16T03:01:33.335Z,6.43
2022-10-16T03:03:59.783Z,6.22
2022-10-16T03:06:26.164Z,6.63
2022-10-16T03:08:52.583Z,6.10
2022-10-16T03:11:18.965Z,6.10
2022-10-16T03:13:45.394Z,6.38
2022-10-16T03:16:12.071Z,6.38
2022-10-16T03:18:38.498Z,5.75
2022-10-16T03:21:04.927Z,5.90
2022-10-16T03:26:02.635Z,5.50
2022-10-16T03:28:29.158Z,5.43
2022-10-16T03:30:55.747Z,5.70
2022-10-16T03:33:22.110Z,5.45
2022-10-16T03:35:53.918Z,5.65
2022-10-16T03:38:20.625Z,6.05
2022-10-16T03:40:47.006Z,5.60
2022-10-16T03:45:44.788Z,5.82
2022-10-16T03:48:11.507Z,5.60
2022-10-16T03:50:37.918Z,5.53
2022-10-16T03:53:04.464Z,5.68
2022-10-16T03:55:30.895Z,6.15
2022-10-16T03:57:57.273Z,5.53
2022-10-16T04:00:23.721Z,5.60
2022-10-16T04:02:50.213Z,5.43
2022-10-16T04:05:16.655Z,5.68
2022-10-16T04:07:43.040Z,5.22
2022-10-16T04:10:09.568Z,5.55
2022-10-16T04:12:35.967Z,5.35
2022-10-16T04:15:02.573Z,5.65
2022-10-16T04:17:29.376Z,5.00
2022-10-16T04:19:55.892Z,5.15
2022-10-16T04:22:22.740Z,4.90
2022-10-16T04:24:52.031Z,4.63
2022-10-16T04:27:18.406Z,4.40
2022-10-16T04:29:44.806Z,4.25
2022-10-16T04:32:11.233Z,4.53
2022-10-16T04:34:39.135Z,4.35
2022-10-16T04:37:05.560Z,4.22
2022-10-16T04:39:31.954Z,4.50
2022-10-16T04:41:58.362Z,4.30
2022-10-16T04:44:24.826Z,4.50
2022-10-16T04:46:51.839Z,4.53
2022-10-16T04:49:18.268Z,4.30
2022-10-16T04:51:44.659Z,3.78
2022-10-16T04:54:13.294Z,3.85
2022-10-16T04:56:47.438Z,3.70
2022-10-16T04:59:15.477Z,3.95
2022-10-16T05:01:41.912Z,3.50
2022-10-16T05:04:08.311Z,3.83
2022-10-16T05:06:34.795Z,4.13
2022-10-16T05:09:01.271Z,3.78
2022-10-16T05:11:27.648Z,3.65
2022-10-16T05:13:55.852Z,3.70
2022-10-16T05:16:22.660Z,3.92
2022-10-16T05:18:53.069Z,3.55
2022-10-16T05:21:19.745Z,3.20
2022-10-16T05:23:46.210Z,3.38
2022-10-16T05:26:12.782Z,3.80
2022-10-16T05:28:39.321Z,2.85
2022-10-16T05:31:10.324Z,3.30
2022-10-16T05:33:36.799Z,3.33
2022-10-16T05:36:05.358Z,3.38
2022-10-16T05:38:31.756Z,2.95
2022-10-16T05:40:58.643Z,2.90
2022-10-16T05:43:25.046Z,2.80
2022-10-16T05:45:59.172Z,2.80
2022-10-16T05:48:26.371Z,2.88
2022-10-16T05:51:00.765Z,2.40
2022-10-16T05:53:29.165Z,2.78
2022-10-16T05:55:56.797Z,2.50
2022-10-16T05:58:23.694Z,2.50
2022-10-16T06:01:04.434Z,2.60
2022-10-16T06:03:30.920Z,2.85
2022-10-16T06:05:57.355Z,2.30
2022-10-16T06:08:24.278Z,2.20
2022-10-16T06:11:04.357Z,2.58
2022-10-16T06:13:30.794Z,2.42
2022-10-16T06:15:59.352Z,2.38
2022-10-16T06:18:26.712Z,2.42
2022-10-16T06:20:53.091Z,2.10
2022-10-16T06:23:19.521Z,2.30
2022-10-16T06:25:46.035Z,2.00
2022-10-16T06:28:12.600Z,2.20
2022-10-16T06:30:38.967Z,2.25
2022-10-16T06:33:05.405Z,2.17
2022-10-16T06:35:32.944Z,2.00
2022-10-16T06:37:59.375Z,1.92
2022-10-16T06:40:25.857Z,2.05
2022-10-16T06:42:52.918Z,1.90
2022-10-16T06:45:19.376Z,2.00
2022-10-16T06:47:47.717Z,1.50
2022-10-16T06:50:16.615Z,1.70
2022-10-16T06:52:43.014Z,1.70
2022-10-16T06:55:09.483Z,1.80
2022-10-16T06:57:35.851Z,1.65
2022-10-16T07:00:02.396Z,1.60
2022-10-16T07:02:29.237Z,1.33
2022-10-16T07:04:57.784Z,1.70
2022-10-16T07:07:25.701Z,1.45
2022-10-16T07:09:52.120Z,1.70
2022-10-16T07:12:18.685Z,1.45
2022-10-16T07:14:45.094Z,1.27
2022-10-16T07:17:11.585Z,1.33
2022-10-16T07:19:37.978Z,1.42
2022-10-16T07:22:04.422Z,1.40
2022-10-16T07:24:30.852Z,1.60
2022-10-16T07:26:57.339Z,1.35
2022-10-16T07:29:23.871Z,1.20
2022-10-16T07:31:50.407Z,1.30
2022-10-16T07:34:18.542Z,1.23
2022-10-16T07:36:45.000Z,1.50
2022-10-16T07:39:11.441Z,1.58
2022-10-16T07:41:38.066Z,1.40
2022-10-16T07:44:04.993Z,1.20
2022-10-16T07:46:31.857Z,1.20
2022-10-16T07:48:58.349Z,1.27
2022-10-16T07:51:26.413Z,1.23
2022-10-16T07:53:53.174Z,1.10
2022-10-16T07:56:20.954Z,1.23
2022-10-16T07:58:47.554Z,1.15
2022-10-16T08:01:16.115Z,1.33
2022-10-16T08:03:46.946Z,1.33
2022-10-16T08:06:13.355Z,1.10
2022-10-16T08:08:39.810Z,1.10
2022-10-16T08:11:06.449Z,1.33
2022-10-16T08:13:33.111Z,1.13
2022-10-16T08:15:59.580Z,1.52
2022-10-16T08:18:26.341Z,1.50
2022-10-16T08:20:58.227Z,1.48
2022-10-16T08:23:26.768Z,1.27
2022-10-16T08:25:54.448Z,1.50
2022-10-16T08:28:20.934Z,1.40
2022-10-16T08:30:47.402Z,1.40
2022-10-16T08:33:13.914Z,1.50
2022-10-16T08:35:40.511Z,1.40
2022-10-16T08:38:07.779Z,1.50
2022-10-16T08:40:35.412Z,1.65
2022-10-16T08:43:20.659Z,1.20
2022-10-16T08:46:20.719Z,1.25
2022-10-16T08:48:49.472Z,1.35
2022-10-16T08:51:27.348Z,1.20
2022-10-16T08:53:57.638Z,1.40
2022-10-16T08:56:24.663Z,1.25
2022-10-16T08:58:55.102Z,1.30
2022-10-16T09:01:25.515Z,1.15
2022-10-16T09:04:02.628Z,1.40
2022-10-16T09:06:48.175Z,1.30
2022-10-16T09:09:34.276Z,1.15
2022-10-16T09:12:11.118Z,1.23
2022-10-16T09:15:15.374Z,1.30
2022-10-16T09:17:49.557Z,1.20
2022-10-16T09:20:57.919Z,1.08
2022-10-16T09:23:29.633Z,0.88
2022-10-16T09:25:57.114Z,1.17
2022-10-16T09:28:23.769Z,1.30
2022-10-16T09:30:50.844Z,1.20
2022-10-16T09:33:20.311Z,1.27
2022-10-16T09:35:49.857Z,1.30
2022-10-16T09:38:25.659Z,1.45
2022-10-16T09:40:58.950Z,1.08
2022-10-16T09:43:32.012Z,1.10
2022-10-16T09:46:09.949Z,1.17
2022-10-16T09:48:39.326Z,1.15
2022-10-16T09:51:07.870Z,1.20
2022-10-16T09:53:46.066Z,1.38
2022-10-16T09:56:23.069Z,1.15
2022-10-16T09:58:58.981Z,1.10
2022-10-16T10:01:37.800Z,1.00
2022-10-16T10:04:04.629Z,1.27
2022-10-16T10:06:34.736Z,1.30
2022-10-16T10:09:05.940Z,1.05
2022-10-16T10:11:44.590Z,1.42
2022-10-16T10:14:23.519Z,1.00
2022-10-16T10:16:50.994Z,1.00
2022-10-16T10:19:23.304Z,0.95
2022-10-16T10:21:51.106Z,0.90
2022-10-16T10:24:19.082Z,1.13
2022-10-16T10:26:55.453Z,1.10
2022-10-16T10:29:50.588Z,1.20
2022-10-16T10:32:32.065Z,1.00
2022-10-16T10:35:17.019Z,1.13
2022-10-16T10:38:07.885Z,1.23
2022-10-16T10:40:52.687Z,1.02
2022-10-16T10:43:50.054Z,1.00
2022-10-16T10:46:43.387Z,0.95
2022-10-16T10:49:33.894Z,1.08
2022-10-16T10:52:25.337Z,0.93
2022-10-16T10:54:58.416Z,0.90
2022-10-16T10:58:02.634Z,0.90
2022-10-16T11:00:34.215Z,0.90
2022-10-16T11:03:26.856Z,1.00
2022-10-16T11:06:02.288Z,1.00
2022-10-16T11:08:37.889Z,0.93
2022-10-16T11:11:12.135Z,0.80
2022-10-16T11:14:01.226Z,1.25
2022-10-16T11:16:30.130Z,0.82
2022-10-16T11:19:01.147Z,1.10
2022-10-16T11:21:31.441Z,1.27
2022-10-16T11:24:20.180Z,1.02
2022-10-16T11:26:48.856Z,1.48
2022-10-16T11:29:21.845Z,1.02
2022-10-16T11:31:51.537Z,1.45
2022-10-16T11:34:35.660Z,0.93
2022-10-16T11:37:13.210Z,1.05
2022-10-16T11:39:40.490Z,0.80
2022-10-16T11:42:10.996Z,0.70
2022-10-16T11:44:46.098Z,1.00
2022-10-16T11:48:05.430Z,0.95
2022-10-16T11:50:54.683Z,1.00
2022-10-16T11:53:35.935Z,0.75
2022-10-16T11:56:02.606Z,0.98
2022-10-16T11:58:46.864Z,1.02
2022-10-16T12:01:26.253Z,1.08
2022-10-16T12:04:05.644Z,1.20
2022-10-16T12:06:36.056Z,1.08
2022-10-16T12:09:02.823Z,0.90
2022-10-16T12:11:29.258Z,1.08
2022-10-16T12:14:20.150Z,1.27
2022-10-16T12:16:56.841Z,1.00
2022-10-16T12:19:27.884Z,1.15
2022-10-16T12:21:57.587Z,1.25
2022-10-16T12:24:38.099Z,1.38
2022-10-16T12:27:06.978Z,1.38
2022-10-16T12:29:41.784Z,1.50
2022-10-16T12:32:46.640Z,1.13
2022-10-16T12:35:25.849Z,1.52
2022-10-16T12:37:52.842Z,1.15
2022-10-16T12:40:46.070Z,1.48
2022-10-16T12:43:24.915Z,1.60
2022-10-16T12:46:04.445Z,1.40
2022-10-16T12:48:42.338Z,1.50
2022-10-16T12:51:21.901Z,1.50
2022-10-16T12:54:07.941Z,1.45
2022-10-16T12:56:46.297Z,1.20
2022-10-16T12:59:34.127Z,1.50
2022-10-16T13:02:38.946Z,2.25
2022-10-16T13:05:11.568Z,1.00
2022-10-16T13:07:56.644Z,1.30
2022-10-16T13:10:40.512Z,1.65
2022-10-16T13:13:48.550Z,1.70
2022-10-16T13:16:26.058Z,1.65
2022-10-16T13:19:13.018Z,0.90
2022-10-16T13:21:57.232Z,1.20
2022-10-16T13:24:36.658Z,0.98
2022-10-16T13:27:40.676Z,1.05
2022-10-16T13:30:17.637Z,0.90
2022-10-16T13:33:01.732Z,0.80
2022-10-16T13:35:31.351Z,0.80
2022-10-16T13:38:14.946Z,0.85
2022-10-16T13:41:01.810Z,0.90
2022-10-16T13:43:32.911Z,0.90
2022-10-16T13:46:12.961Z,1.20
2022-10-16T13:48:39.474Z,0.98
2022-10-16T13:51:17.208Z,1.00
2022-10-16T13:53:45.011Z,1.30
2022-10-16T13:56:14.135Z,1.08
2022-10-16T13:58:40.609Z,0.93
2022-10-16T14:01:17.140Z,0.93
2022-10-16T14:03:43.873Z,0.80
2022-10-16T14:06:16.818Z,0.80
2022-10-16T14:08:45.214Z,0.85
2022-10-16T14:11:11.842Z,0.82
2022-10-16T14:13:41.118Z,0.80
2022-10-16T14:16:11.880Z,0.70
2022-10-16T14:18:39.846Z,1.00
2022-10-16T14:21:14.576Z,1.00
2022-10-16T14:23:42.196Z,0.90
2022-10-16T14:26:11.518Z,1.13
2022-10-16T14:28:38.884Z,1.00
2022-10-16T14:31:24.497Z,1.13
2022-10-16T14:33:50.945Z,1.30
2022-10-16T14:36:19.515Z,1.25
2022-10-16T14:39:07.418Z,1.20
2022-10-16T14:41:43.089Z,1.27
2022-10-16T14:44:11.711Z,1.00
2022-10-16T14:46:39.744Z,0.95
2022-10-16T14:49:11.981Z,1.33
2022-10-16T14:51:43.007Z,1.00
2022-10-16T14:54:10.123Z,1.40
2022-10-16T14:57:02.938Z,1.05
2022-10-16T14:59:40.615Z,1.27
2022-10-16T15:02:19.525Z,1.05
2022-10-16T15:04:46.190Z,1.30
2022-10-16T15:07:12.615Z,1.15
2022-10-16T15:09:39.162Z,1.30
2022-10-16T15:12:05.786Z,1.00
2022-10-16T15:14:32.182Z,0.90
2022-10-16T15:16:58.857Z,0.90
2022-10-16T15:19:25.283Z,1.10
2022-10-16T15:21:52.242Z,1.20
2022-10-16T15:24:21.388Z,1.45
2022-10-16T15:26:48.150Z,1.00
2022-10-16T15:29:15.408Z,1.08
2022-10-16T15:31:45.589Z,1.00
2022-10-16T15:34:12.099Z,1.02
2022-10-16T15:36:39.461Z,1.40
2022-10-16T15:39:11.948Z,1.00
2022-10-16T15:41:38.491Z,1.05
2022-10-16T15:44:04.945Z,1.25
2022-10-16T15:46:34.631Z,1.50
2022-10-16T15:49:01.308Z,1.40
2022-10-16T15:51:30.266Z,1.45
2022-10-16T15:53:57.879Z,1.30
2022-10-16T15:56:26.272Z,1.42
2022-10-16T15:58:54.398Z,1.13
2022-10-16T16:01:21.593Z,1.10
2022-10-16T16:03:48.148Z,1.10
2022-10-16T16:06:15.367Z,1.15
2022-10-16T16:08:41.911Z,1.20
2022-10-16T16:11:13.465Z,1.42
2022-10-16T16:13:41.174Z,1.10
2022-10-16T16:16:09.158Z,1.20
2022-10-16T16:18:35.763Z,1.13
2022-10-16T16:21:02.275Z,0.98
2022-10-16T16:23:28.691Z,1.40
2022-10-16T16:26:08.590Z,1.50
2022-10-16T16:28:35.677Z,1.20
2022-10-16T16:31:02.244Z,1.30
2022-10-16T16:33:28.679Z,1.40
2022-10-16T16:36:15.985Z,1.50
2022-10-16T16:38:42.656Z,1.70
2022-10-16T16:41:17.685Z,1.50
2022-10-16T16:43:44.754Z,1.52
2022-10-16T16:46:11.783Z,1.50
2022-10-16T16:48:38.818Z,1.48
2022-10-16T16:51:06.855Z,1.45
2022-10-16T16:53:37.233Z,1.20
2022-10-16T16:56:07.125Z,1.35
2022-10-16T16:58:33.742Z,1.30
2022-10-16T17:01:20.721Z,1.10
2022-10-16T17:03:50.266Z,1.20
2022-10-16T17:06:19.528Z,1.60
2022-10-16T17:08:47.003Z,1.25
2022-10-16T17:11:15.975Z,1.73
2022-10-16T17:13:42.496Z,2.55
2022-10-16T17:16:09.656Z,3.10
2022-10-16T17:18:36.750Z,3.20
2022-10-16T17:21:06.578Z,2.40
2022-10-16T17:23:33.927Z,1.90
2022-10-16T17:26:12.325Z,1.75
2022-10-16T17:28:38.764Z,1.70
2022-10-16T17:33:40.651Z,1.58
2022-10-16T17:36:07.187Z,2.08
2022-10-16T17:38:33.764Z,1.90
2022-10-16T17:41:10.561Z,1.92
2022-10-16T17:43:37.717Z,1.90
2022-10-16T17:46:04.462Z,1.80
2022-10-16T17:48:30.910Z,2.30
2022-10-16T17:50:57.292Z,2.10
2022-10-16T17:53:23.708Z,2.35
2022-10-16T17:55:50.163Z,2.28
2022-10-16T17:58:16.568Z,2.63
2022-10-16T18:00:42.998Z,2.40
2022-10-16T18:03:09.398Z,2.35
2022-10-16T18:05:38.200Z,2.60
2022-10-16T18:08:04.727Z,2.40
2022-10-16T18:10:31.241Z,2.28
2022-10-16T18:12:57.766Z,2.10
2022-10-16T18:15:24.226Z,2.20
2022-10-16T18:17:50.581Z,3.10
2022-10-16T18:20:17.063Z,2.60
2022-10-16T18:22:43.472Z,2.28
2022-10-16T18:25:10.327Z,2.00
2022-10-16T18:27:36.703Z,2.60
2022-10-16T18:30:03.589Z,2.90
2022-10-16T18:32:30.052Z,2.92
2022-10-16T18:34:56.472Z,2.72
2022-10-16T18:37:23.002Z,3.38
2022-10-16T18:39:49.913Z,2.72
2022-10-16T18:42:17.285Z,2.60
2022-10-16T18:44:43.822Z,2.25
2022-10-16T18:47:10.618Z,2.00
2022-10-16T18:49:37.032Z,2.05
2022-10-16T18:52:03.770Z,1.52
2022-10-16T18:54:30.822Z,1.27
2022-10-16T18:56:57.472Z,1.30
2022-10-16T18:59:26.180Z,1.60
2022-10-16T19:01:52.696Z,1.35
2022-10-16T19:04:20.115Z,1.58
2022-10-16T19:06:49.515Z,1.27
2022-10-16T19:09:17.773Z,0.90
2022-10-16T19:11:44.514Z,0.95
2022-10-16T19:14:12.333Z,1.13
2022-10-16T19:16:38.928Z,1.30
2022-10-16T19:19:07.546Z,1.20
2022-10-16T19:21:36.949Z,1.33
2022-10-16T19:24:04.279Z,1.13
2022-10-16T19:26:31.648Z,1.20
2022-10-16T19:28:59.910Z,1.25
2022-10-16T19:31:27.861Z,1.20
2022-10-16T19:33:56.089Z,1.10
2022-10-16T19:36:27.938Z,1.13
2022-10-16T19:38:58.823Z,1.05
2022-10-16T19:41:26.384Z,1.00
2022-10-16T19:43:53.248Z,1.25
2022-10-16T19:46:21.821Z,1.50
2022-10-16T19:48:48.471Z,1.10
2022-10-16T19:51:17.454Z,1.40
2022-10-16T19:53:44.845Z,1.23
2022-10-16T19:56:19.169Z,1.25
2022-10-16T19:58:46.222Z,1.35
2022-10-16T20:01:14.052Z,1.50
2022-10-16T20:03:41.124Z,1.45
2022-10-16T20:06:08.357Z,1.38
2022-10-16T20:08:38.651Z,1.25
2022-10-16T20:11:06.744Z,1.55
2022-10-16T20:13:36.202Z,1.88
2022-10-16T20:16:05.114Z,1.70
2022-10-16T20:18:31.621Z,2.03
2022-10-16T20:20:58.088Z,1.90
2022-10-16T20:23:24.682Z,2.00
2022-10-16T20:25:51.150Z,2.70
2022-10-16T20:28:19.638Z,2.83
2022-10-16T20:30:47.924Z,3.17
2022-10-16T20:33:15.243Z,3.55
2022-10-16T20:35:44.423Z,2.97
2022-10-16T20:38:11.547Z,3.40
2022-10-16T20:40:39.239Z,3.00
2022-10-16T20:43:06.617Z,2.55
2022-10-16T20:45:33.731Z,3.25
2022-10-16T20:48:00.190Z,2.70
2022-10-16T20:50:30.337Z,2.67
2022-10-16T20:52:57.913Z,2.22
2022-10-16T20:55:24.618Z,2.47
2022-10-16T20:57:51.041Z,2.28
2022-10-16T21:00:18.296Z,2.83
2022-10-16T21:02:44.910Z,2.28
2022-10-16T21:05:11.394Z,2.20
2022-10-16T21:07:37.801Z,2.35
2022-10-16T21:10:04.720Z,2.45
2022-10-16T21:12:31.301Z,2.30
2022-10-16T21:15:13.839Z,2.47
2022-10-16T21:17:41.055Z,2.90
2022-10-16T21:20:07.799Z,2.05
2022-10-16T21:22:34.213Z,2.25
2022-10-16T21:25:00.654Z,2.40
2022-10-16T21:27:27.048Z,2.60
2022-10-16T21:29:54.349Z,2.83
2022-10-16T21:32:21.090Z,3.08
2022-10-16T21:34:48.132Z,2.85
2022-10-16T21:37:14.713Z,2.90
2022-10-16T21:39:41.193Z,2.55
2022-10-16T21:42:07.666Z,2.33
2022-10-16T21:44:34.086Z,2.42
2022-10-16T21:47:00.545Z,2.35
2022-10-16T21:49:27.022Z,2.28
2022-10-16T21:51:53.485Z,2.42
2022-10-16T21:54:21.885Z,2.45
2022-10-16T21:56:48.351Z,2.80
2022-10-16T21:59:15.360Z,3.30
2022-10-16T22:01:42.501Z,2.67
2022-10-16T22:04:13.873Z,3.45
2022-10-16T22:06:40.320Z,3.72
2022-10-16T22:09:07.124Z,3.63
2022-10-16T22:11:38.904Z,3.30
2022-10-16T22:14:07.859Z,3.72
2022-10-16T22:16:35.290Z,3.63
2022-10-16T22:19:03.561Z,3.78
2022-10-16T22:21:32.265Z,3.75
2022-10-16T22:23:59.232Z,4.28
2022-10-16T22:26:25.933Z,4.25
2022-10-16T22:28:52.475Z,4.10
2022-10-16T22:31:19.156Z,4.82
2022-10-16T22:33:45.589Z,4.68
2022-10-16T22:36:13.887Z,4.43
2022-10-16T22:38:40.743Z,4.80
2022-10-16T22:41:12.806Z,3.95
2022-10-16T22:43:49.210Z,4.20
2022-10-16T22:46:17.999Z,3.55
2022-10-16T22:48:44.942Z,4.25
2022-10-16T22:51:16.565Z,3.45
2022-10-16T22:56:10.830Z,3.47
2022-10-16T22:58:37.330Z,3.85
2022-10-16T23:01:10.998Z,3.50
2022-10-16T23:03:37.448Z,3.60
2022-10-16T23:06:04.611Z,3.35
2022-10-16T23:08:31.051Z,3.60
2022-10-16T23:11:00.919Z,3.80
2022-10-16T23:13:28.091Z,3.45
2022-10-16T23:15:54.532Z,3.70
2022-10-16T23:18:20.898Z,3.85
2022-10-16T23:20:47.300Z,3.10
2022-10-16T23:23:13.774Z,3.47
2022-10-16T23:25:45.903Z,3.70
2022-10-16T23:28:12.711Z,3.22
2022-10-16T23:30:39.494Z,3.20
2022-10-16T23:33:05.987Z,3.17
2022-10-16T23:35:32.394Z,3.15
2022-10-16T23:37:58.839Z,3.17
2022-10-16T23:40:25.334Z,3.53
2022-10-16T23:42:51.753Z,3.40
2022-10-16T23:45:18.151Z,3.47
2022-10-16T23:47:44.543Z,3.60
2022-10-16T23:50:11.018Z,3.42
2022-10-16T23:52:37.434Z,4.28
2022-10-16T23:55:04.827Z,4.00
2022-10-16T23:57:31.573Z,4.40
2022-10-16T23:59:58.164Z,3.53
